Milwaukee, Wisconsin
Traffic Map
Current Weather Conditions
Milwaukee, Wisconsin
Scattered Clouds
Scattered Clouds
61°
Feels Like: 61°
Wind Chill: 61° Ceiling: Unl
Heat Index: 61° Visibility: 10mi
Dew Point: 54° Wind: 15mph
Humidity: 78% Direction: 290° (WNW)
Pressure: 29.7in Gusts: 24mph
Raw Report DataKMKE 210816Z 29013G21KT 10SM SCT019 SCT024 16/12 A2970 RMK AO2 T01610122 $
Traffic Incident Summary
Active as of:
Severity:
Category:
InformationThere was an issue retrieving the traffic information for this location. Please try a different location or try again shortly.
Advertisements
Track Severe Weather on mobile